Terminal Aerodrome Forecast
Issued by NWS Duluth, MN

Home | Current Version | Previous Version | Text Only | Print | Product List | Glossary On
Versions: 1 2 3 4 5 6 7 8 9 10 11 12 13 14 15 16 17
000
FTUS43 KDLH 170531
TAFDLH
TAF
KDLH 170531Z 1706/1806 22015G24KT P6SM BKN150 WS020/24038KT
     FM170800 22010G17KT P6SM VCSH OVC035
      TEMPO 1709/1713 5SM -SN OVC025
     FM171400 27011KT P6SM BKN080
     FM171900 28011G18KT P6SM BKN080
     FM180100 28009KT P6SM FEW250=

USA.gov is the U.S. government's official web portal to all federal, state and local government web resources and services.